Grygla, Minnesota
Current Conditions -  °F | °C
As of 7:35 PM on Friday 19 Dec 2014 (Local Time) from KTVF Reporting Station
Overcast Overcast  
Wind Chill: 17°   Ceiling: 200
Heat Index: 27°   Visibility: 1.2mi
Dew Point: 25°   Wind: 9mph
Humidity: 93%   Direction: 140°SE
Pressure: 30.03"   Gusts: NA
Location:  48.3°N, 95.62°W
Report Text: KTVF 200135Z AUTO 14008KT 1 1/4SM OVC002 M03/M04 A3003 RMK AO1
Loading
Personal Weather Stations






























Interactive Weather Map New forecast layout! Learn more

10-Day Weather Forecast

Advertisements
Track Severe Weather on mobile